sensor_id;sensor_type;location;lat;lon;timestamp;P1;durP1;ratioP1;P2;durP2;ratioP2
18265;SDS011;9259;48.194;16.322;2022-07-11T00:00:10;1.90;;;0.47;;
18265;SDS011;9259;48.194;16.322;2022-07-11T00:02:40;3.08;;;0.50;;
18265;SDS011;9259;48.194;16.322;2022-07-11T00:05:08;4.22;;;0.75;;
18265;SDS011;9259;48.194;16.322;2022-07-11T00:07:38;2.45;;;0.68;;
18265;SDS011;9259;48.194;16.322;2022-07-11T00:10:06;3.90;;;0.75;;
18265;SDS011;9259;48.194;16.322;2022-07-11T00:12:34;4.57;;;0.85;;
18265;SDS011;9259;48.194;16.322;2022-07-11T00:15:03;2.13;;;0.77;;
18265;SDS011;9259;48.194;16.322;2022-07-11T00:17:32;3.33;;;0.60;;
18265;SDS011;9259;48.194;16.322;2022-07-11T00:20:00;1.83;;;0.52;;
18265;SDS011;9259;48.194;16.322;2022-07-11T00:22:28;3.15;;;0.80;;
18265;SDS011;9259;48.194;16.322;2022-07-11T00:24:58;1.63;;;0.60;;
18265;SDS011;9259;48.194;16.322;2022-07-11T00:27:26;1.90;;;0.50;;
18265;SDS011;9259;48.194;16.322;2022-07-11T00:29:54;1.92;;;0.65;;
18265;SDS011;9259;48.194;16.322;2022-07-11T00:32:22;3.38;;;0.60;;
18265;SDS011;9259;48.194;16.322;2022-07-11T00:34:50;2.60;;;0.63;;
18265;SDS011;9259;48.194;16.322;2022-07-11T00:37:18;3.22;;;0.75;;
18265;SDS011;9259;48.194;16.322;2022-07-11T00:39:46;3.85;;;0.57;;
18265;SDS011;9259;48.194;16.322;2022-07-11T00:42:20;1.27;;;0.50;;
18265;SDS011;9259;48.194;16.322;2022-07-11T00:44:48;1.75;;;0.65;;
18265;SDS011;9259;48.194;16.322;2022-07-11T00:47:16;1.55;;;0.47;;
18265;SDS011;9259;48.194;16.322;2022-07-11T00:49:44;2.70;;;0.55;;
18265;SDS011;9259;48.194;16.322;2022-07-11T00:52:12;2.33;;;0.70;;
18265;SDS011;9259;48.194;16.322;2022-07-11T00:54:40;0.98;;;0.60;;
18265;SDS011;9259;48.194;16.322;2022-07-11T00:57:08;1.45;;;0.60;;
18265;SDS011;9259;48.194;16.322;2022-07-11T00:59:38;3.85;;;0.60;;
18265;SDS011;9259;48.194;16.322;2022-07-11T01:02:06;2.42;;;0.47;;
18265;SDS011;9259;48.194;16.322;2022-07-11T01:04:34;2.20;;;0.55;;
18265;SDS011;9259;48.194;16.322;2022-07-11T01:07:08;2.35;;;0.70;;
18265;SDS011;9259;48.194;16.322;2022-07-11T01:09:36;1.75;;;0.50;;
18265;SDS011;9259;48.194;16.322;2022-07-11T01:12:08;3.35;;;0.52;;
18265;SDS011;9259;48.194;16.322;2022-07-11T01:14:37;0.88;;;0.40;;
18265;SDS011;9259;48.194;16.322;2022-07-11T01:17:05;2.60;;;0.50;;
18265;SDS011;9259;48.194;16.322;2022-07-11T01:19:33;2.10;;;0.50;;
18265;SDS011;9259;48.194;16.322;2022-07-11T01:22:01;2.10;;;0.60;;
18265;SDS011;9259;48.194;16.322;2022-07-11T01:24:32;6.43;;;0.65;;
18265;SDS011;9259;48.194;16.322;2022-07-11T01:27:00;6.88;;;0.50;;
18265;SDS011;9259;48.194;16.322;2022-07-11T01:29:29;2.45;;;0.50;;
18265;SDS011;9259;48.194;16.322;2022-07-11T01:31:57;2.10;;;0.60;;
18265;SDS011;9259;48.194;16.322;2022-07-11T01:34:25;1.55;;;0.35;;
18265;SDS011;9259;48.194;16.322;2022-07-11T01:36:53;4.22;;;0.60;;
18265;SDS011;9259;48.194;16.322;2022-07-11T01:39:21;1.40;;;0.52;;
18265;SDS011;9259;48.194;16.322;2022-07-11T01:41:51;3.28;;;0.70;;
18265;SDS011;9259;48.194;16.322;2022-07-11T01:44:19;2.05;;;0.63;;
18265;SDS011;9259;48.194;16.322;2022-07-11T01:46:47;3.63;;;0.60;;
18265;SDS011;9259;48.194;16.322;2022-07-11T01:49:15;1.73;;;0.60;;
18265;SDS011;9259;48.194;16.322;2022-07-11T01:51:46;3.05;;;0.55;;
18265;SDS011;9259;48.194;16.322;2022-07-11T01:54:15;2.00;;;0.70;;
18265;SDS011;9259;48.194;16.322;2022-07-11T01:56:43;2.97;;;0.60;;
18265;SDS011;9259;48.194;16.322;2022-07-11T01:59:12;2.35;;;0.70;;
18265;SDS011;9259;48.194;16.322;2022-07-11T02:01:40;2.67;;;0.52;;
18265;SDS011;9259;48.194;16.322;2022-07-11T02:04:08;1.83;;;0.70;;
18265;SDS011;9259;48.194;16.322;2022-07-11T02:06:36;2.90;;;0.68;;
18265;SDS011;9259;48.194;16.322;2022-07-11T02:09:04;3.13;;;0.65;;
18265;SDS011;9259;48.194;16.322;2022-07-11T02:11:32;3.05;;;0.55;;
18265;SDS011;9259;48.194;16.322;2022-07-11T02:14:00;3.65;;;0.80;;
18265;SDS011;9259;48.194;16.322;2022-07-11T02:16:29;3.10;;;0.90;;
18265;SDS011;9259;48.194;16.322;2022-07-11T02:18:57;2.45;;;0.50;;
18265;SDS011;9259;48.194;16.322;2022-07-11T02:21:25;3.53;;;0.90;;
18265;SDS011;9259;48.194;16.322;2022-07-11T02:23:53;3.70;;;0.65;;
18265;SDS011;9259;48.194;16.322;2022-07-11T02:26:21;2.22;;;0.73;;
18265;SDS011;9259;48.194;16.322;2022-07-11T02:28:51;2.20;;;0.60;;
18265;SDS011;9259;48.194;16.322;2022-07-11T02:31:19;2.55;;;0.70;;
18265;SDS011;9259;48.194;16.322;2022-07-11T02:33:49;2.05;;;0.50;;
18265;SDS011;9259;48.194;16.322;2022-07-11T02:36:17;2.17;;;0.60;;
18265;SDS011;9259;48.194;16.322;2022-07-11T02:38:45;3.83;;;0.65;;
18265;SDS011;9259;48.194;16.322;2022-07-11T02:41:13;2.80;;;0.90;;
18265;SDS011;9259;48.194;16.322;2022-07-11T02:43:41;3.92;;;0.60;;
18265;SDS011;9259;48.194;16.322;2022-07-11T02:46:09;1.40;;;0.70;;
18265;SDS011;9259;48.194;16.322;2022-07-11T02:48:37;2.20;;;0.82;;
18265;SDS011;9259;48.194;16.322;2022-07-11T02:51:07;2.28;;;0.80;;
18265;SDS011;9259;48.194;16.322;2022-07-11T02:53:37;1.50;;;0.77;;
18265;SDS011;9259;48.194;16.322;2022-07-11T02:56:05;3.47;;;0.70;;
18265;SDS011;9259;48.194;16.322;2022-07-11T02:58:33;3.50;;;0.70;;
18265;SDS011;9259;48.194;16.322;2022-07-11T03:01:01;3.50;;;0.80;;
18265;SDS011;9259;48.194;16.322;2022-07-11T03:03:29;1.45;;;0.85;;
18265;SDS011;9259;48.194;16.322;2022-07-11T03:05:57;3.20;;;0.90;;
18265;SDS011;9259;48.194;16.322;2022-07-11T03:08:27;7.85;;;1.27;;
18265;SDS011;9259;48.194;16.322;2022-07-11T03:10:55;2.55;;;0.90;;
18265;SDS011;9259;48.194;16.322;2022-07-11T03:13:24;2.15;;;0.80;;
18265;SDS011;9259;48.194;16.322;2022-07-11T03:15:52;3.38;;;1.00;;
18265;SDS011;9259;48.194;16.322;2022-07-11T03:18:20;4.70;;;1.00;;
18265;SDS011;9259;48.194;16.322;2022-07-11T03:20:48;5.97;;;1.00;;
18265;SDS011;9259;48.194;16.322;2022-07-11T03:23:16;3.70;;;1.08;;
18265;SDS011;9259;48.194;16.322;2022-07-11T03:25:46;2.53;;;0.88;;
18265;SDS011;9259;48.194;16.322;2022-07-11T03:28:14;3.33;;;0.93;;
18265;SDS011;9259;48.194;16.322;2022-07-11T03:30:43;3.87;;;0.90;;
18265;SDS011;9259;48.194;16.322;2022-07-11T03:33:11;2.80;;;1.00;;
18265;SDS011;9259;48.194;16.322;2022-07-11T03:35:39;2.47;;;1.05;;
18265;SDS011;9259;48.194;16.322;2022-07-11T03:38:07;5.07;;;0.80;;
18265;SDS011;9259;48.194;16.322;2022-07-11T03:40:36;2.22;;;0.70;;
18265;SDS011;9259;48.194;16.322;2022-07-11T03:43:05;2.40;;;1.08;;
18265;SDS011;9259;48.194;16.322;2022-07-11T03:45:33;3.85;;;0.85;;
18265;SDS011;9259;48.194;16.322;2022-07-11T03:48:02;2.85;;;1.10;;
18265;SDS011;9259;48.194;16.322;2022-07-11T03:50:30;3.13;;;1.00;;
18265;SDS011;9259;48.194;16.322;2022-07-11T03:52:58;4.80;;;0.82;;
18265;SDS011;9259;48.194;16.322;2022-07-11T03:55:32;3.72;;;1.10;;
18265;SDS011;9259;48.194;16.322;2022-07-11T03:58:00;3.28;;;1.00;;
18265;SDS011;9259;48.194;16.322;2022-07-11T04:00:29;1.77;;;0.90;;
18265;SDS011;9259;48.194;16.322;2022-07-11T04:02:57;6.93;;;1.20;;
18265;SDS011;9259;48.194;16.322;2022-07-11T04:05:26;2.83;;;1.00;;
18265;SDS011;9259;48.194;16.322;2022-07-11T04:07:54;3.50;;;0.82;;
18265;SDS011;9259;48.194;16.322;2022-07-11T04:10:23;3.10;;;1.00;;
18265;SDS011;9259;48.194;16.322;2022-07-11T04:12:51;1.63;;;0.80;;
18265;SDS011;9259;48.194;16.322;2022-07-11T04:15:19;4.00;;;0.80;;
18265;SDS011;9259;48.194;16.322;2022-07-11T04:17:49;3.22;;;0.98;;
18265;SDS011;9259;48.194;16.322;2022-07-11T04:20:17;3.37;;;0.90;;
18265;SDS011;9259;48.194;16.322;2022-07-11T04:22:45;2.20;;;1.00;;
18265;SDS011;9259;48.194;16.322;2022-07-11T04:25:13;1.67;;;0.90;;
18265;SDS011;9259;48.194;16.322;2022-07-11T04:27:41;4.60;;;1.23;;
18265;SDS011;9259;48.194;16.322;2022-07-11T04:30:09;3.00;;;1.07;;
18265;SDS011;9259;48.194;16.322;2022-07-11T04:32:37;1.83;;;0.90;;
18265;SDS011;9259;48.194;16.322;2022-07-11T04:35:07;1.95;;;0.80;;
18265;SDS011;9259;48.194;16.322;2022-07-11T04:37:36;2.13;;;0.90;;
18265;SDS011;9259;48.194;16.322;2022-07-11T04:40:04;1.75;;;0.70;;
18265;SDS011;9259;48.194;16.322;2022-07-11T04:42:33;3.38;;;1.05;;
18265;SDS011;9259;48.194;16.322;2022-07-11T04:45:01;2.42;;;0.80;;
18265;SDS011;9259;48.194;16.322;2022-07-11T04:47:29;1.73;;;0.82;;
18265;SDS011;9259;48.194;16.322;2022-07-11T04:49:57;2.03;;;0.80;;
18265;SDS011;9259;48.194;16.322;2022-07-11T04:52:26;1.73;;;0.80;;
18265;SDS011;9259;48.194;16.322;2022-07-11T04:54:55;4.00;;;0.80;;
18265;SDS011;9259;48.194;16.322;2022-07-11T04:57:23;2.17;;;1.00;;
18265;SDS011;9259;48.194;16.322;2022-07-11T04:59:52;2.97;;;0.90;;
18265;SDS011;9259;48.194;16.322;2022-07-11T05:02:20;1.52;;;0.80;;
18265;SDS011;9259;48.194;16.322;2022-07-11T05:04:48;3.23;;;0.93;;
18265;SDS011;9259;48.194;16.322;2022-07-11T05:07:16;2.87;;;1.17;;
18265;SDS011;9259;48.194;16.322;2022-07-11T05:09:45;1.37;;;0.87;;
18265;SDS011;9259;48.194;16.322;2022-07-11T05:12:13;4.00;;;1.00;;
18265;SDS011;9259;48.194;16.322;2022-07-11T05:14:41;3.45;;;1.05;;
18265;SDS011;9259;48.194;16.322;2022-07-11T05:17:09;2.37;;;0.83;;
18265;SDS011;9259;48.194;16.322;2022-07-11T05:19:37;5.43;;;1.20;;
18265;SDS011;9259;48.194;16.322;2022-07-11T05:22:05;2.53;;;0.95;;
18265;SDS011;9259;48.194;16.322;2022-07-11T05:24:33;2.83;;;1.00;;
18265;SDS011;9259;48.194;16.322;2022-07-11T05:27:03;2.25;;;0.80;;
18265;SDS011;9259;48.194;16.322;2022-07-11T05:29:31;4.25;;;0.90;;
18265;SDS011;9259;48.194;16.322;2022-07-11T05:31:59;3.83;;;1.05;;
18265;SDS011;9259;48.194;16.322;2022-07-11T05:34:27;4.40;;;0.90;;
18265;SDS011;9259;48.194;16.322;2022-07-11T05:36:55;4.82;;;1.05;;
18265;SDS011;9259;48.194;16.322;2022-07-11T05:39:23;2.55;;;0.65;;
18265;SDS011;9259;48.194;16.322;2022-07-11T05:41:51;3.40;;;0.80;;
18265;SDS011;9259;48.194;16.322;2022-07-11T05:44:21;2.30;;;0.60;;
18265;SDS011;9259;48.194;16.322;2022-07-11T05:46:49;4.55;;;0.88;;
18265;SDS011;9259;48.194;16.322;2022-07-11T05:49:17;2.33;;;0.75;;
18265;SDS011;9259;48.194;16.322;2022-07-11T05:51:45;2.05;;;0.70;;
18265;SDS011;9259;48.194;16.322;2022-07-11T05:54:13;3.22;;;0.63;;
18265;SDS011;9259;48.194;16.322;2022-07-11T05:56:42;2.60;;;0.70;;
18265;SDS011;9259;48.194;16.322;2022-07-11T05:59:13;4.63;;;0.70;;
18265;SDS011;9259;48.194;16.322;2022-07-11T06:01:42;5.13;;;1.00;;
18265;SDS011;9259;48.194;16.322;2022-07-11T06:04:10;1.63;;;0.60;;
18265;SDS011;9259;48.194;16.322;2022-07-11T06:06:38;1.77;;;1.02;;
18265;SDS011;9259;48.194;16.322;2022-07-11T06:09:06;4.90;;;0.90;;
18265;SDS011;9259;48.194;16.322;2022-07-11T06:11:34;3.42;;;0.93;;
18265;SDS011;9259;48.194;16.322;2022-07-11T06:14:02;1.52;;;0.70;;
18265;SDS011;9259;48.194;16.322;2022-07-11T06:16:31;3.72;;;0.70;;
18265;SDS011;9259;48.194;16.322;2022-07-11T06:19:02;5.07;;;0.90;;
18265;SDS011;9259;48.194;16.322;2022-07-11T06:21:33;8.45;;;1.10;;
18265;SDS011;9259;48.194;16.322;2022-07-11T06:24:01;2.13;;;0.82;;
18265;SDS011;9259;48.194;16.322;2022-07-11T06:26:30;2.72;;;0.90;;
18265;SDS011;9259;48.194;16.322;2022-07-11T06:28:58;5.30;;;0.85;;
18265;SDS011;9259;48.194;16.322;2022-07-11T06:31:26;2.00;;;0.68;;
18265;SDS011;9259;48.194;16.322;2022-07-11T06:33:54;5.53;;;1.27;;
18265;SDS011;9259;48.194;16.322;2022-07-11T06:36:24;2.85;;;0.88;;
18265;SDS011;9259;48.194;16.322;2022-07-11T06:38:53;5.43;;;0.90;;
18265;SDS011;9259;48.194;16.322;2022-07-11T06:41:21;4.70;;;0.68;;
18265;SDS011;9259;48.194;16.322;2022-07-11T06:43:49;2.17;;;0.70;;
18265;SDS011;9259;48.194;16.322;2022-07-11T06:46:17;2.88;;;0.80;;
18265;SDS011;9259;48.194;16.322;2022-07-11T06:48:45;1.75;;;0.80;;
18265;SDS011;9259;48.194;16.322;2022-07-11T06:51:13;7.72;;;1.00;;
18265;SDS011;9259;48.194;16.322;2022-07-11T06:53:43;2.50;;;0.82;;
18265;SDS011;9259;48.194;16.322;2022-07-11T06:56:11;5.13;;;1.15;;
18265;SDS011;9259;48.194;16.322;2022-07-11T06:58:39;8.50;;;1.10;;
18265;SDS011;9259;48.194;16.322;2022-07-11T07:01:07;4.05;;;0.82;;
18265;SDS011;9259;48.194;16.322;2022-07-11T07:03:35;2.75;;;0.73;;
18265;SDS011;9259;48.194;16.322;2022-07-11T07:06:03;4.22;;;0.90;;
18265;SDS011;9259;48.194;16.322;2022-07-11T07:08:31;4.25;;;0.80;;
18265;SDS011;9259;48.194;16.322;2022-07-11T07:11:01;3.88;;;1.02;;
18265;SDS011;9259;48.194;16.322;2022-07-11T07:13:29;6.18;;;1.05;;
18265;SDS011;9259;48.194;16.322;2022-07-11T07:15:57;6.18;;;1.10;;
18265;SDS011;9259;48.194;16.322;2022-07-11T07:18:25;2.80;;;0.80;;
18265;SDS011;9259;48.194;16.322;2022-07-11T07:20:53;1.42;;;0.68;;
18265;SDS011;9259;48.194;16.322;2022-07-11T07:23:24;6.03;;;1.00;;
18265;SDS011;9259;48.194;16.322;2022-07-11T07:25:52;4.45;;;1.02;;
18265;SDS011;9259;48.194;16.322;2022-07-11T07:28:21;4.18;;;1.00;;
18265;SDS011;9259;48.194;16.322;2022-07-11T07:30:49;3.53;;;1.02;;
18265;SDS011;9259;48.194;16.322;2022-07-11T07:33:17;4.50;;;0.90;;
18265;SDS011;9259;48.194;16.322;2022-07-11T07:35:45;6.18;;;0.77;;
18265;SDS011;9259;48.194;16.322;2022-07-11T07:38:13;2.85;;;0.73;;
18265;SDS011;9259;48.194;16.322;2022-07-11T07:40:41;4.80;;;1.13;;
18265;SDS011;9259;48.194;16.322;2022-07-11T07:43:09;6.38;;;0.90;;
18265;SDS011;9259;48.194;16.322;2022-07-11T07:45:39;3.63;;;0.85;;
18265;SDS011;9259;48.194;16.322;2022-07-11T07:48:07;2.25;;;0.77;;
18265;SDS011;9259;48.194;16.322;2022-07-11T07:50:35;2.65;;;1.00;;
18265;SDS011;9259;48.194;16.322;2022-07-11T07:53:03;2.35;;;0.90;;
18265;SDS011;9259;48.194;16.322;2022-07-11T07:55:31;5.15;;;1.30;;
18265;SDS011;9259;48.194;16.322;2022-07-11T07:57:59;8.65;;;1.08;;
18265;SDS011;9259;48.194;16.322;2022-07-11T08:00:27;6.15;;;1.08;;
18265;SDS011;9259;48.194;16.322;2022-07-11T08:03:17;4.28;;;1.33;;
18265;SDS011;9259;48.194;16.322;2022-07-11T08:05:45;3.67;;;1.20;;
18265;SDS011;9259;48.194;16.322;2022-07-11T08:08:13;3.95;;;1.40;;
18265;SDS011;9259;48.194;16.322;2022-07-11T08:10:41;4.68;;;1.55;;
18265;SDS011;9259;48.194;16.322;2022-07-11T08:13:09;8.48;;;1.42;;
18265;SDS011;9259;48.194;16.322;2022-07-11T08:15:37;8.68;;;1.38;;
18265;SDS011;9259;48.194;16.322;2022-07-11T08:18:05;8.20;;;1.13;;
18265;SDS011;9259;48.194;16.322;2022-07-11T08:20:40;3.17;;;0.90;;
18265;SDS011;9259;48.194;16.322;2022-07-11T08:23:08;2.80;;;0.90;;
18265;SDS011;9259;48.194;16.322;2022-07-11T08:25:36;3.90;;;0.90;;
18265;SDS011;9259;48.194;16.322;2022-07-11T08:28:05;6.28;;;1.05;;
18265;SDS011;9259;48.194;16.322;2022-07-11T08:30:33;5.20;;;0.90;;
18265;SDS011;9259;48.194;16.322;2022-07-11T08:33:01;5.65;;;1.05;;
18265;SDS011;9259;48.194;16.322;2022-07-11T08:35:29;9.18;;;1.42;;
18265;SDS011;9259;48.194;16.322;2022-07-11T08:37:59;4.60;;;1.20;;
18265;SDS011;9259;48.194;16.322;2022-07-11T08:40:27;7.15;;;1.38;;
18265;SDS011;9259;48.194;16.322;2022-07-11T08:42:56;8.93;;;1.13;;
18265;SDS011;9259;48.194;16.322;2022-07-11T08:45:28;7.88;;;1.30;;
18265;SDS011;9259;48.194;16.322;2022-07-11T08:47:56;6.97;;;1.20;;
18265;SDS011;9259;48.194;16.322;2022-07-11T08:50:25;6.78;;;1.20;;
18265;SDS011;9259;48.194;16.322;2022-07-11T08:52:53;6.93;;;1.40;;
18265;SDS011;9259;48.194;16.322;2022-07-11T08:55:23;3.95;;;1.05;;
18265;SDS011;9259;48.194;16.322;2022-07-11T08:57:51;6.07;;;1.00;;
18265;SDS011;9259;48.194;16.322;2022-07-11T09:00:19;3.95;;;1.40;;
18265;SDS011;9259;48.194;16.322;2022-07-11T09:02:48;3.17;;;0.90;;
18265;SDS011;9259;48.194;16.322;2022-07-11T09:05:16;5.28;;;1.10;;
18265;SDS011;9259;48.194;16.322;2022-07-11T09:07:45;3.30;;;1.23;;
18265;SDS011;9259;48.194;16.322;2022-07-11T09:10:14;4.32;;;1.25;;
18265;SDS011;9259;48.194;16.322;2022-07-11T09:13:00;9.10;;;1.60;;
18265;SDS011;9259;48.194;16.322;2022-07-11T09:15:33;7.38;;;1.98;;
18265;SDS011;9259;48.194;16.322;2022-07-11T09:18:03;3.58;;;1.38;;
18265;SDS011;9259;48.194;16.322;2022-07-11T09:23:37;6.25;;;1.35;;
18265;SDS011;9259;48.194;16.322;2022-07-11T09:26:28;3.95;;;1.60;;
18265;SDS011;9259;48.194;16.322;2022-07-11T09:29:02;5.55;;;1.30;;
18265;SDS011;9259;48.194;16.322;2022-07-11T09:31:35;3.75;;;1.27;;
18265;SDS011;9259;48.194;16.322;2022-07-11T09:34:05;5.25;;;1.38;;
18265;SDS011;9259;48.194;16.322;2022-07-11T09:36:35;4.38;;;1.40;;
18265;SDS011;9259;48.194;16.322;2022-07-11T09:39:11;6.72;;;1.70;;
18265;SDS011;9259;48.194;16.322;2022-07-11T09:41:40;7.10;;;1.80;;
18265;SDS011;9259;48.194;16.322;2022-07-11T09:44:13;4.45;;;1.45;;
18265;SDS011;9259;48.194;16.322;2022-07-11T09:46:43;5.35;;;1.55;;
18265;SDS011;9259;48.194;16.322;2022-07-11T09:49:12;7.13;;;1.73;;
18265;SDS011;9259;48.194;16.322;2022-07-11T09:51:41;4.78;;;1.58;;
18265;SDS011;9259;48.194;16.322;2022-07-11T09:54:09;3.55;;;1.23;;
18265;SDS011;9259;48.194;16.322;2022-07-11T09:56:38;4.82;;;1.60;;
18265;SDS011;9259;48.194;16.322;2022-07-11T09:59:08;7.50;;;1.48;;
18265;SDS011;9259;48.194;16.322;2022-07-11T10:01:40;5.85;;;1.60;;
18265;SDS011;9259;48.194;16.322;2022-07-11T10:04:08;7.45;;;1.48;;
18265;SDS011;9259;48.194;16.322;2022-07-11T10:06:43;6.38;;;1.40;;
18265;SDS011;9259;48.194;16.322;2022-07-11T10:09:11;5.82;;;1.40;;
18265;SDS011;9259;48.194;16.322;2022-07-11T10:11:39;5.57;;;1.35;;
18265;SDS011;9259;48.194;16.322;2022-07-11T10:14:08;3.85;;;1.40;;
18265;SDS011;9259;48.194;16.322;2022-07-11T10:16:40;4.10;;;1.27;;
18265;SDS011;9259;48.194;16.322;2022-07-11T10:19:16;4.55;;;1.30;;
18265;SDS011;9259;48.194;16.322;2022-07-11T10:21:54;3.35;;;1.02;;
18265;SDS011;9259;48.194;16.322;2022-07-11T10:24:32;5.63;;;1.25;;
18265;SDS011;9259;48.194;16.322;2022-07-11T10:27:06;4.55;;;1.20;;
18265;SDS011;9259;48.194;16.322;2022-07-11T10:29:38;2.78;;;1.10;;
18265;SDS011;9259;48.194;16.322;2022-07-11T10:32:10;5.25;;;1.10;;
18265;SDS011;9259;48.194;16.322;2022-07-11T10:34:39;2.70;;;1.10;;
18265;SDS011;9259;48.194;16.322;2022-07-11T10:37:07;5.55;;;1.10;;
18265;SDS011;9259;48.194;16.322;2022-07-11T10:39:37;4.65;;;1.20;;
18265;SDS011;9259;48.194;16.322;2022-07-11T10:42:19;4.90;;;1.20;;
18265;SDS011;9259;48.194;16.322;2022-07-11T10:44:47;4.32;;;1.17;;
18265;SDS011;9259;48.194;16.322;2022-07-11T10:47:34;3.00;;;0.93;;
18265;SDS011;9259;48.194;16.322;2022-07-11T10:50:08;5.75;;;1.40;;
18265;SDS011;9259;48.194;16.322;2022-07-11T10:52:41;3.72;;;1.30;;
18265;SDS011;9259;48.194;16.322;2022-07-11T10:55:18;3.67;;;1.13;;
18265;SDS011;9259;48.194;16.322;2022-07-11T10:57:54;7.68;;;2.70;;
18265;SDS011;9259;48.194;16.322;2022-07-11T11:00:28;5.20;;;1.50;;
18265;SDS011;9259;48.194;16.322;2022-07-11T11:03:05;3.13;;;1.10;;
18265;SDS011;9259;48.194;16.322;2022-07-11T11:05:47;5.35;;;1.23;;
18265;SDS011;9259;48.194;16.322;2022-07-11T11:14:24;5.25;;;1.40;;
18265;SDS011;9259;48.194;16.322;2022-07-11T11:16:56;4.35;;;0.90;;
18265;SDS011;9259;48.194;16.322;2022-07-11T11:20:04;2.03;;;0.70;;
18265;SDS011;9259;48.194;16.322;2022-07-11T11:22:32;4.80;;;1.02;;
18265;SDS011;9259;48.194;16.322;2022-07-11T11:25:00;2.53;;;0.88;;
18265;SDS011;9259;48.194;16.322;2022-07-11T11:27:29;4.43;;;0.98;;
18265;SDS011;9259;48.194;16.322;2022-07-11T11:29:57;1.70;;;0.77;;
18265;SDS011;9259;48.194;16.322;2022-07-11T11:32:28;6.43;;;0.93;;
18265;SDS011;9259;48.194;16.322;2022-07-11T11:34:57;5.05;;;0.90;;
18265;SDS011;9259;48.194;16.322;2022-07-11T11:37:27;2.60;;;0.85;;
18265;SDS011;9259;48.194;16.322;2022-07-11T11:39:58;3.53;;;0.90;;
18265;SDS011;9259;48.194;16.322;2022-07-11T11:42:27;2.40;;;0.80;;
18265;SDS011;9259;48.194;16.322;2022-07-11T11:44:57;3.17;;;0.98;;
18265;SDS011;9259;48.194;16.322;2022-07-11T11:47:28;3.85;;;0.75;;
18265;SDS011;9259;48.194;16.322;2022-07-11T11:49:57;2.42;;;0.90;;
18265;SDS011;9259;48.194;16.322;2022-07-11T11:52:28;2.58;;;0.70;;
18265;SDS011;9259;48.194;16.322;2022-07-11T11:54:59;1.90;;;0.88;;
18265;SDS011;9259;48.194;16.322;2022-07-11T11:57:27;3.17;;;0.80;;
18265;SDS011;9259;48.194;16.322;2022-07-11T11:59:56;2.80;;;0.80;;
18265;SDS011;9259;48.194;16.322;2022-07-11T12:02:24;2.20;;;0.70;;
18265;SDS011;9259;48.194;16.322;2022-07-11T12:04:56;2.05;;;0.90;;
18265;SDS011;9259;48.194;16.322;2022-07-11T12:07:26;3.60;;;0.80;;
18265;SDS011;9259;48.194;16.322;2022-07-11T12:09:56;2.13;;;0.68;;
18265;SDS011;9259;48.194;16.322;2022-07-11T12:12:29;1.75;;;0.90;;
18265;SDS011;9259;48.194;16.322;2022-07-11T12:15:24;4.50;;;0.90;;
18265;SDS011;9259;48.194;16.322;2022-07-11T12:17:57;1.73;;;0.60;;
18265;SDS011;9259;48.194;16.322;2022-07-11T12:20:33;2.05;;;0.90;;
18265;SDS011;9259;48.194;16.322;2022-07-11T12:23:05;9.85;;;1.10;;
18265;SDS011;9259;48.194;16.322;2022-07-11T12:25:34;2.47;;;0.80;;
18265;SDS011;9259;48.194;16.322;2022-07-11T12:28:03;5.90;;;1.10;;
18265;SDS011;9259;48.194;16.322;2022-07-11T12:30:33;3.83;;;1.25;;
18265;SDS011;9259;48.194;16.322;2022-07-11T12:33:03;2.85;;;0.80;;
18265;SDS011;9259;48.194;16.322;2022-07-11T12:35:31;2.97;;;0.80;;
18265;SDS011;9259;48.194;16.322;2022-07-11T12:37:59;3.28;;;1.10;;
18265;SDS011;9259;48.194;16.322;2022-07-11T12:40:29;3.35;;;1.00;;
18265;SDS011;9259;48.194;16.322;2022-07-11T12:43:01;5.93;;;1.30;;
18265;SDS011;9259;48.194;16.322;2022-07-11T12:46:00;4.40;;;1.30;;
18265;SDS011;9259;48.194;16.322;2022-07-11T12:48:37;4.70;;;1.20;;
18265;SDS011;9259;48.194;16.322;2022-07-11T12:51:07;3.70;;;1.00;;
18265;SDS011;9259;48.194;16.322;2022-07-11T12:53:35;2.95;;;1.10;;
18265;SDS011;9259;48.194;16.322;2022-07-11T12:56:05;4.50;;;1.00;;
18265;SDS011;9259;48.194;16.322;2022-07-11T12:58:37;4.28;;;1.00;;
18265;SDS011;9259;48.194;16.322;2022-07-11T13:01:05;4.15;;;1.00;;
18265;SDS011;9259;48.194;16.322;2022-07-11T13:03:36;2.83;;;0.90;;
18265;SDS011;9259;48.194;16.322;2022-07-11T13:06:05;5.25;;;1.00;;
18265;SDS011;9259;48.194;16.322;2022-07-11T13:08:35;6.43;;;1.13;;
18265;SDS011;9259;48.194;16.322;2022-07-11T13:11:10;3.08;;;1.10;;
18265;SDS011;9259;48.194;16.322;2022-07-11T13:13:39;6.32;;;0.90;;
18265;SDS011;9259;48.194;16.322;2022-07-11T13:16:07;5.63;;;0.88;;
18265;SDS011;9259;48.194;16.322;2022-07-11T13:18:35;4.25;;;1.17;;
18265;SDS011;9259;48.194;16.322;2022-07-11T13:21:03;3.65;;;0.90;;
18265;SDS011;9259;48.194;16.322;2022-07-11T13:23:36;1.45;;;0.70;;
18265;SDS011;9259;48.194;16.322;2022-07-11T13:26:05;3.17;;;0.90;;
18265;SDS011;9259;48.194;16.322;2022-07-11T13:28:35;1.75;;;0.70;;
18265;SDS011;9259;48.194;16.322;2022-07-11T13:31:07;19.38;;;1.73;;
18265;SDS011;9259;48.194;16.322;2022-07-11T13:33:35;5.05;;;1.13;;
18265;SDS011;9259;48.194;16.322;2022-07-11T13:36:04;5.07;;;1.25;;
18265;SDS011;9259;48.194;16.322;2022-07-11T13:38:33;3.40;;;0.80;;
18265;SDS011;9259;48.194;16.322;2022-07-11T13:41:01;3.90;;;0.93;;
18265;SDS011;9259;48.194;16.322;2022-07-11T13:43:30;5.65;;;1.00;;
18265;SDS011;9259;48.194;16.322;2022-07-11T13:46:00;1.85;;;1.10;;
18265;SDS011;9259;48.194;16.322;2022-07-11T13:48:28;2.55;;;1.15;;
18265;SDS011;9259;48.194;16.322;2022-07-11T13:50:56;2.97;;;1.20;;
18265;SDS011;9259;48.194;16.322;2022-07-11T13:53:24;3.78;;;0.80;;
18265;SDS011;9259;48.194;16.322;2022-07-11T13:55:52;2.08;;;0.90;;
18265;SDS011;9259;48.194;16.322;2022-07-11T13:58:20;3.00;;;1.00;;
18265;SDS011;9259;48.194;16.322;2022-07-11T14:00:51;2.65;;;0.90;;
18265;SDS011;9259;48.194;16.322;2022-07-11T14:03:21;3.67;;;0.80;;
18265;SDS011;9259;48.194;16.322;2022-07-11T14:05:49;2.10;;;0.73;;
18265;SDS011;9259;48.194;16.322;2022-07-11T14:08:18;3.78;;;1.08;;
18265;SDS011;9259;48.194;16.322;2022-07-11T14:10:46;4.15;;;1.00;;
18265;SDS011;9259;48.194;16.322;2022-07-11T14:13:15;4.47;;;0.90;;
18265;SDS011;9259;48.194;16.322;2022-07-11T14:15:43;2.78;;;0.93;;
18265;SDS011;9259;48.194;16.322;2022-07-11T14:18:11;3.55;;;1.08;;
18265;SDS011;9259;48.194;16.322;2022-07-11T14:20:40;1.98;;;1.00;;
18265;SDS011;9259;48.194;16.322;2022-07-11T14:23:08;4.40;;;1.10;;
18265;SDS011;9259;48.194;16.322;2022-07-11T14:25:36;3.28;;;1.00;;
18265;SDS011;9259;48.194;16.322;2022-07-11T14:28:05;2.85;;;1.10;;
18265;SDS011;9259;48.194;16.322;2022-07-11T14:30:33;6.32;;;1.23;;
18265;SDS011;9259;48.194;16.322;2022-07-11T14:33:01;2.33;;;0.90;;
18265;SDS011;9259;48.194;16.322;2022-07-11T14:35:29;2.28;;;1.00;;
18265;SDS011;9259;48.194;16.322;2022-07-11T14:37:59;2.50;;;1.00;;
18265;SDS011;9259;48.194;16.322;2022-07-11T14:40:28;4.35;;;1.17;;
18265;SDS011;9259;48.194;16.322;2022-07-11T14:42:56;2.55;;;0.80;;
18265;SDS011;9259;48.194;16.322;2022-07-11T14:45:24;2.13;;;0.80;;
18265;SDS011;9259;48.194;16.322;2022-07-11T14:47:52;2.80;;;0.90;;
18265;SDS011;9259;48.194;16.322;2022-07-11T14:50:20;1.85;;;0.73;;
18265;SDS011;9259;48.194;16.322;2022-07-11T14:52:48;3.80;;;0.85;;
18265;SDS011;9259;48.194;16.322;2022-07-11T14:55:21;1.95;;;0.70;;
18265;SDS011;9259;48.194;16.322;2022-07-11T14:57:49;4.68;;;1.08;;
18265;SDS011;9259;48.194;16.322;2022-07-11T15:00:17;7.43;;;1.40;;
18265;SDS011;9259;48.194;16.322;2022-07-11T15:02:47;3.05;;;1.08;;
18265;SDS011;9259;48.194;16.322;2022-07-11T15:05:32;2.28;;;0.77;;
18265;SDS011;9259;48.194;16.322;2022-07-11T15:08:00;2.63;;;0.90;;
18265;SDS011;9259;48.194;16.322;2022-07-11T15:10:47;3.47;;;1.00;;